Time;durP1;ratioP1;P1;durP2;ratioP2;P2;SDS_P1;SDS_P2;PMS_P1;PMS_P2;Temp;Humidity;BMP_temperature;BMP_pressure;BME280_temperature;BME280_humidity;BME280_pressure;Samples;Min_cycle;Max_cycle;Signal;HPM_P1;HPM_P2
2023/03/08 00:01:00;;;;;;;0.27;0.27;;;1.20;99.90;;;;;;5065531;28;20048;-74
2023/03/08 00:03:25;;;;;;;1.70;0.67;;;1.20;99.90;;;;;;5067337;28;20458;-71
2023/03/08 00:05:52;;;;;;;1.53;0.63;;;1.30;99.90;;;;;;5066750;28;20580;-71
2023/03/08 00:08:18;;;;;;;3.70;0.73;;;1.30;99.90;;;;;;5065476;28;20595;-72
2023/03/08 00:10:44;;;;;;;0.70;0.50;;;1.40;99.90;;;;;;5065752;28;20493;-73
2023/03/08 00:13:10;;;;;;;0.53;0.40;;;1.40;99.90;;;;;;5065156;28;20622;-72
2023/03/08 00:15:37;;;;;;;0.43;0.30;;;1.40;99.90;;;;;;5065546;28;20116;-71
2023/03/08 00:18:03;;;;;;;1.80;1.43;;;1.40;99.90;;;;;;5066313;28;20520;-72
2023/03/08 00:20:29;;;;;;;0.30;0.30;;;1.40;99.90;;;;;;5067330;28;20063;-74
2023/03/08 00:22:55;;;;;;;5.77;0.97;;;1.40;99.90;;;;;;5065787;28;20044;-71
2023/03/08 00:25:20;;;;;;;0.40;0.30;;;1.40;99.90;;;;;;5065019;28;20086;-72
2023/03/08 00:27:46;;;;;;;0.30;0.30;;;1.50;99.90;;;;;;5066490;28;20040;-72
2023/03/08 00:30:12;;;;;;;4.23;0.53;;;1.40;99.90;;;;;;5065060;28;20595;-72
2023/03/08 00:32:38;;;;;;;11.50;1.90;;;1.40;99.90;;;;;;5064841;28;20048;-72
2023/03/08 00:35:04;;;;;;;0.93;0.90;;;1.40;99.90;;;;;;5051672;28;20049;-73
2023/03/08 00:37:30;;;;;;;0.10;0.10;;;1.40;99.90;;;;;;5045238;28;20036;-73
2023/03/08 00:39:55;;;;;;;0.57;0.47;;;1.40;99.90;;;;;;5046690;28;20033;-72
2023/03/08 00:42:21;;;;;;;0.77;0.77;;;1.40;99.90;;;;;;5054431;28;20045;-73
2023/03/08 00:44:47;;;;;;;0.30;0.30;;;1.30;99.90;;;;;;5062400;28;20400;-72
2023/03/08 00:47:13;;;;;;;0.63;0.30;;;1.30;99.90;;;;;;5056713;28;20044;-72
2023/03/08 00:49:39;;;;;;;3.07;1.27;;;1.30;99.90;;;;;;5047129;28;20048;-73
2023/03/08 00:52:05;;;;;;;2.67;0.40;;;1.30;99.90;;;;;;5049717;28;20060;-71
2023/03/08 00:54:31;;;;;;;0.53;0.27;;;1.30;99.90;;;;;;5047240;28;20045;-72
2023/03/08 00:56:57;;;;;;;0.87;0.53;;;1.30;99.90;;;;;;5065656;28;20507;-72
2023/03/08 00:59:22;;;;;;;0.50;0.30;;;1.30;99.90;;;;;;5057424;28;20075;-72
2023/03/08 01:01:48;;;;;;;2.17;1.10;;;1.20;99.90;;;;;;5049293;28;20076;-72
2023/03/08 01:04:14;;;;;;;1.60;1.50;;;1.20;99.90;;;;;;5050445;28;20115;-71
2023/03/08 01:06:42;;;;;;;4.27;1.10;;;1.20;99.90;;;;;;5046188;28;20076;-72
2023/03/08 01:09:08;;;;;;;0.40;0.40;;;1.20;99.90;;;;;;5064390;28;20044;-71
2023/03/08 01:11:35;;;;;;;3.37;0.50;;;1.20;99.90;;;;;;5065831;28;20101;-71
2023/03/08 01:14:02;;;;;;;13.20;2.10;;;1.20;99.90;;;;;;5065388;28;20037;-71
2023/03/08 01:16:31;;;;;;;0.70;0.50;;;1.20;99.90;;;;;;5060326;28;20408;-73
2023/03/08 01:18:58;;;;;;;0.30;0.17;;;1.20;99.90;;;;;;5046151;28;20049;-72
2023/03/08 01:21:25;;;;;;;1.20;0.63;;;1.20;99.90;;;;;;5054825;28;20037;-71
2023/03/08 01:23:51;;;;;;;1.83;0.43;;;1.10;99.90;;;;;;5064377;28;20677;-72
2023/03/08 01:26:20;;;;;;;1.13;0.70;;;1.10;99.90;;;;;;5063818;28;20052;-72
2023/03/08 01:28:46;;;;;;;0.60;0.60;;;1.10;99.90;;;;;;5065027;28;20052;-72
2023/03/08 01:31:15;;;;;;;1.67;0.40;;;1.10;99.90;;;;;;5062934;28;20052;-72
2023/03/08 01:33:42;;;;;;;0.80;0.80;;;1.10;99.90;;;;;;5055483;28;20051;-73
2023/03/08 01:36:10;;;;;;;4.80;0.97;;;1.20;99.90;;;;;;5045229;28;20044;-71
2023/03/08 01:38:36;;;;;;;0.80;0.53;;;1.20;99.90;;;;;;5044070;28;20055;-71
2023/03/08 01:41:06;;;;;;;0.67;0.33;;;1.20;99.90;;;;;;5045051;28;20049;-72
2023/03/08 01:43:34;;;;;;;34.50;1.07;;;1.20;99.90;;;;;;5044870;28;20044;-73
2023/03/08 01:46:19;;;;;;;3.13;1.00;;;1.20;99.90;;;;;;5044374;28;20191;-73
2023/03/08 01:48:51;;;;;;;0.70;0.50;;;1.20;99.90;;;;;;5065162;28;20048;-74
2023/03/08 01:51:29;;;;;;;2.67;0.85;;;1.30;99.90;;;;;;5063970;28;20037;-72
2023/03/08 01:53:55;;;;;;;0.20;0.20;;;1.30;99.90;;;;;;5063918;28;20489;-73
2023/03/08 01:56:22;;;;;;;0.63;0.20;;;1.20;99.90;;;;;;5065094;28;20150;-72
2023/03/08 01:58:50;;;;;;;1.83;0.53;;;1.20;99.90;;;;;;5064690;28;20481;-72
2023/03/08 02:01:17;;;;;;;0.90;0.60;;;1.20;99.90;;;;;;5063842;28;20090;-72
2023/03/08 02:03:45;;;;;;;0.67;0.50;;;1.10;99.90;;;;;;5064960;28;20076;-71
2023/03/08 02:06:12;;;;;;;0.60;0.47;;;1.10;99.90;;;;;;5064759;28;20044;-72
2023/03/08 02:11:06;;;;;;;0.30;0.30;;;1.00;99.90;;;;;;4994365;28;20050;-72
2023/03/08 02:13:32;;;;;;;0.57;0.53;;;1.00;99.90;;;;;;5001214;28;20042;-74
2023/03/08 02:16:01;;;;;;;0.30;0.30;;;1.00;99.90;;;;;;5006130;28;20137;-72
2023/03/08 02:18:27;;;;;;;5.63;0.50;;;0.90;99.90;;;;;;5009390;28;20125;-72
2023/03/08 02:20:53;;;;;;;2.57;0.57;;;0.90;99.90;;;;;;5003269;28;20126;-72
2023/03/08 02:23:21;;;;;;;2.03;0.87;;;0.90;99.90;;;;;;4972448;28;20117;-72
2023/03/08 02:26:02;;;;;;;0.50;0.30;;;0.90;99.90;;;;;;4972071;28;20502;-73
2023/03/08 02:28:28;;;;;;;2.57;0.40;;;0.80;99.90;;;;;;4999481;28;20496;-72
2023/03/08 02:30:54;;;;;;;1.23;0.40;;;0.80;99.90;;;;;;4997148;28;20096;-71
2023/03/08 02:33:20;;;;;;;0.70;0.70;;;0.80;99.90;;;;;;5004636;28;20042;-72
2023/03/08 02:35:45;;;;;;;0.57;0.57;;;0.80;99.90;;;;;;5005715;28;20050;-73
2023/03/08 02:38:14;;;;;;;0.77;0.33;;;0.70;99.90;;;;;;4989333;28;20462;-72
2023/03/08 02:40:39;;;;;;;0.40;0.20;;;0.70;99.90;;;;;;4989359;28;20133;-72
2023/03/08 02:43:06;;;;;;;0.40;0.40;;;0.70;99.90;;;;;;4989008;28;20110;-73
2023/03/08 02:45:32;;;;;;;1.07;0.30;;;0.70;99.90;;;;;;4987428;28;20058;-72
2023/03/08 02:47:59;;;;;;;0.53;0.50;;;0.60;99.90;;;;;;5007376;28;20034;-73
2023/03/08 02:50:25;;;;;;;0.40;0.40;;;0.60;99.90;;;;;;5007504;28;20046;-73
2023/03/08 02:52:51;;;;;;;0.17;0.13;;;0.60;99.90;;;;;;5007772;28;20389;-73
2023/03/08 02:55:16;;;;;;;0.30;0.30;;;0.50;99.90;;;;;;5007382;28;20104;-72
2023/03/08 02:57:42;;;;;;;0.40;0.30;;;0.50;99.90;;;;;;5007290;28;20061;-73
2023/03/08 03:00:08;;;;;;;1.23;0.30;;;0.50;99.90;;;;;;5006117;28;20069;-73
2023/03/08 03:02:34;;;;;;;1.80;0.30;;;0.50;99.90;;;;;;5008599;28;20050;-72
2023/03/08 03:05:03;;;;;;;0.20;0.20;;;0.50;99.90;;;;;;5006834;28;20045;-73
2023/03/08 03:07:28;;;;;;;0.60;0.57;;;0.50;99.90;;;;;;5009108;28;20077;-72
2023/03/08 03:09:54;;;;;;;0.60;0.30;;;0.50;99.90;;;;;;4990736;28;20498;-72
2023/03/08 03:12:20;;;;;;;1.97;0.40;;;0.50;99.90;;;;;;5008324;28;20068;-72
2023/03/08 03:14:45;;;;;;;0.50;0.40;;;0.50;99.90;;;;;;5005917;28;20595;-72
2023/03/08 03:17:11;;;;;;;1.07;0.53;;;0.50;99.90;;;;;;5008041;28;20053;-73
2023/03/08 03:19:37;;;;;;;1.73;0.50;;;0.50;99.90;;;;;;5007809;28;20042;-72
2023/03/08 03:22:03;;;;;;;6.83;0.43;;;0.40;99.90;;;;;;5008100;28;20046;-72
2023/03/08 03:24:28;;;;;;;1.00;0.80;;;0.40;99.90;;;;;;5003249;28;20483;-73
2023/03/08 03:26:54;;;;;;;1.17;1.07;;;0.40;99.90;;;;;;4987672;28;20042;-72
2023/03/08 03:29:19;;;;;;;1.13;0.50;;;0.40;99.90;;;;;;4986183;28;20074;-73
2023/03/08 03:31:45;;;;;;;1.33;0.47;;;0.40;99.90;;;;;;4987183;28;20034;-73
2023/03/08 03:34:11;;;;;;;2.30;0.97;;;0.40;99.90;;;;;;4986759;28;20077;-72
2023/03/08 03:36:36;;;;;;;0.23;0.23;;;0.40;99.90;;;;;;4987510;28;20048;-72
2023/03/08 03:39:02;;;;;;;0.77;0.70;;;0.40;99.90;;;;;;4994779;28;20136;-72
2023/03/08 03:41:28;;;;;;;1.37;0.60;;;0.40;99.90;;;;;;5007147;28;20081;-73
2023/03/08 03:43:53;;;;;;;0.87;0.30;;;0.40;99.90;;;;;;4993338;28;20074;-72
2023/03/08 03:46:21;;;;;;;1.93;0.30;;;0.30;99.90;;;;;;4989813;28;20100;-72
2023/03/08 03:48:47;;;;;;;0.40;0.40;;;0.30;99.90;;;;;;5007611;28;20077;-71
2023/03/08 03:51:18;;;;;;;0.27;0.20;;;0.30;99.90;;;;;;5008065;28;20127;-72
2023/03/08 03:53:44;;;;;;;0.97;0.40;;;0.30;99.90;;;;;;4990274;28;20375;-72
2023/03/08 03:56:20;;;;;;;0.10;0.10;;;0.30;99.90;;;;;;5006142;28;20076;-72
2023/03/08 03:58:46;;;;;;;1.13;1.03;;;0.30;99.90;;;;;;5007336;28;20053;-73
2023/03/08 04:01:19;;;;;;;1.80;1.00;;;0.30;99.90;;;;;;5005907;28;20042;-72
2023/03/08 04:03:46;;;;;;;0.63;0.30;;;0.20;99.90;;;;;;4987820;28;20136;-72
2023/03/08 04:06:15;;;;;;;0.40;0.27;;;0.20;99.90;;;;;;4987931;28;20050;-73
2023/03/08 04:08:41;;;;;;;1.00;0.50;;;0.20;99.90;;;;;;4998025;28;20109;-72
2023/03/08 04:11:18;;;;;;;0.83;0.40;;;0.20;99.90;;;;;;5005689;28;20050;-72
2023/03/08 04:13:45;;;;;;;0.20;0.20;;;0.20;99.90;;;;;;4994576;28;20046;-72
2023/03/08 04:16:16;;;;;;;0.40;0.37;;;0.10;99.90;;;;;;4986641;28;20053;-72
2023/03/08 04:18:42;;;;;;;0.40;0.10;;;0.10;99.90;;;;;;4986322;28;20525;-72
2023/03/08 04:21:08;;;;;;;1.10;0.60;;;0.10;99.90;;;;;;4993184;28;20071;-72
2023/03/08 04:23:34;;;;;;;0.33;0.20;;;0.10;99.90;;;;;;5006937;28;20042;-72
2023/03/08 04:26:00;;;;;;;0.73;0.30;;;0.00;99.90;;;;;;5005681;28;20429;-73
2023/03/08 04:28:26;;;;;;;0.87;0.50;;;0.00;99.90;;;;;;4989626;28;20038;-73
2023/03/08 04:30:52;;;;;;;11.50;0.93;;;0.00;99.90;;;;;;5005260;28;20548;-72
2023/03/08 04:33:18;;;;;;;1.03;0.40;;;0.00;99.90;;;;;;5006319;28;20104;-73
2023/03/08 04:35:43;;;;;;;2.77;0.40;;;0.00;99.90;;;;;;5005540;28;20050;-73
2023/03/08 04:38:09;;;;;;;1.17;0.40;;;0.10;99.90;;;;;;5006325;28;20046;-72
2023/03/08 04:41:00;;;;;;;0.13;0.13;;;0.10;99.90;;;;;;5005656;28;20042;-73
2023/03/08 04:43:23;;;;;;;0.33;0.33;;;0.10;99.90;;;;;;5006042;28;20042;-72
2023/03/08 04:45:49;;;;;;;0.40;0.40;;;0.10;99.90;;;;;;5005684;28;20051;-73
2023/03/08 04:48:14;;;;;;;0.37;0.30;;;0.10;99.90;;;;;;5006297;28;20045;-72
2023/03/08 04:50:40;;;;;;;0.23;0.23;;;0.10;99.90;;;;;;5005082;28;20473;-72
2023/03/08 04:53:07;;;;;;;0.20;0.20;;;0.10;99.90;;;;;;5006067;28;20042;-73
2023/03/08 04:55:33;;;;;;;0.27;0.20;;;0.10;99.90;;;;;;5005244;28;20042;-72
2023/03/08 04:57:58;;;;;;;3.70;0.33;;;0.10;99.90;;;;;;5007033;28;20061;-72
2023/03/08 05:00:24;;;;;;;0.30;0.30;;;0.00;99.90;;;;;;5002005;28;20430;-73
2023/03/08 05:02:50;;;;;;;0.27;0.27;;;0.10;99.90;;;;;;4973343;28;20050;-73
2023/03/08 05:05:15;;;;;;;2.03;0.40;;;0.00;99.90;;;;;;4994069;28;20042;-71
2023/03/08 05:07:41;;;;;;;0.40;0.40;;;0.00;99.90;;;;;;5001998;28;20080;-72
2023/03/08 05:10:07;;;;;;;1.27;0.33;;;0.00;99.90;;;;;;4990389;28;20112;-72
2023/03/08 05:12:32;;;;;;;0.80;0.53;;;0.00;99.90;;;;;;4986368;28;20690;-71
2023/03/08 05:14:58;;;;;;;0.23;0.23;;;0.00;99.90;;;;;;5004288;28;20048;-73
2023/03/08 05:17:23;;;;;;;0.20;0.20;;;0.00;99.90;;;;;;5005813;28;20509;-72
2023/03/08 05:19:49;;;;;;;0.53;0.30;;;0.00;99.90;;;;;;5004990;28;20049;-72
2023/03/08 05:22:15;;;;;;;0.87;0.73;;;-0.10;99.90;;;;;;5004468;28;20096;-73
2023/03/08 05:24:40;;;;;;;5.70;1.17;;;-0.10;99.90;;;;;;5005450;28;20034;-73
2023/03/08 05:27:07;;;;;;;1.10;0.40;;;-0.10;99.90;;;;;;4984882;28;20050;-72
2023/03/08 05:29:33;;;;;;;0.40;0.30;;;-0.10;99.90;;;;;;4984022;28;20046;-72
2023/03/08 05:32:01;;;;;;;1.40;0.43;;;-0.10;99.90;;;;;;4986641;28;20042;-75
2023/03/08 05:34:28;;;;;;;7.23;0.67;;;-0.10;99.90;;;;;;4986628;28;20043;-72
2023/03/08 05:36:53;;;;;;;0.33;0.30;;;-0.10;99.90;;;;;;4986509;28;20125;-72
2023/03/08 05:39:19;;;;;;;0.60;0.33;;;0.00;99.90;;;;;;4984636;28;20427;-73
2023/03/08 05:41:45;;;;;;;0.93;0.40;;;0.00;99.90;;;;;;4986190;28;20042;-73
2023/03/08 05:44:10;;;;;;;2.50;0.57;;;-0.10;99.90;;;;;;4983237;28;20186;-72
2023/03/08 05:46:37;;;;;;;0.63;0.50;;;-0.10;99.90;;;;;;4991263;28;20046;-73
2023/03/08 05:49:04;;;;;;;1.00;0.70;;;-0.10;99.90;;;;;;5003571;28;20478;-73
2023/03/08 05:51:29;;;;;;;1.10;1.00;;;-0.10;99.90;;;;;;5005558;28;20045;-75
2023/03/08 05:53:55;;;;;;;2.93;1.47;;;-0.10;99.90;;;;;;5004861;28;20047;-72
2023/03/08 05:56:22;;;;;;;1.27;0.60;;;-0.20;99.90;;;;;;5005189;28;20104;-73
2023/03/08 05:58:48;;;;;;;0.83;0.40;;;-0.20;99.90;;;;;;5003643;28;20056;-73
2023/03/08 06:01:20;;;;;;;1.57;0.97;;;-0.30;99.90;;;;;;5004421;28;20080;-71
2023/03/08 06:03:48;;;;;;;0.82;0.57;;;-0.30;99.90;;;;;;5005736;28;20104;-72
2023/03/08 06:06:14;;;;;;;1.07;0.50;;;-0.30;99.90;;;;;;5005640;28;20421;-71
2023/03/08 06:08:40;;;;;;;0.53;0.50;;;-0.30;99.90;;;;;;5000728;28;20042;-72
2023/03/08 06:11:06;;;;;;;1.93;0.47;;;-0.40;99.90;;;;;;4992117;28;20133;-73
2023/03/08 06:13:32;;;;;;;2.67;0.70;;;-0.40;99.90;;;;;;5004376;28;20044;-73
2023/03/08 06:15:59;;;;;;;3.40;1.13;;;-0.40;99.90;;;;;;5003981;28;20166;-72
2023/03/08 06:18:25;;;;;;;5.83;1.43;;;-0.40;99.90;;;;;;4980944;28;20609;-72
2023/03/08 06:21:15;;;;;;;10.23;1.10;;;-0.30;99.90;;;;;;5003095;28;20108;-72
2023/03/08 06:23:41;;;;;;;6.17;0.83;;;-0.40;99.90;;;;;;4990411;28;20054;-72
2023/03/08 06:26:08;;;;;;;1.33;1.23;;;-0.30;99.90;;;;;;4998082;28;20510;-71
2023/03/08 06:28:35;;;;;;;0.40;0.40;;;-0.30;99.90;;;;;;5005382;28;20034;-72
2023/03/08 06:31:00;;;;;;;1.10;0.50;;;-0.30;99.90;;;;;;4998186;28;20040;-72
2023/03/08 06:33:29;;;;;;;1.80;0.57;;;-0.30;99.90;;;;;;5003868;28;20037;-71
2023/03/08 06:36:03;;;;;;;0.67;0.63;;;-0.30;99.90;;;;;;4992967;28;20050;-72
2023/03/08 06:38:31;;;;;;;4.83;0.60;;;-0.20;99.90;;;;;;4997344;28;20117;-71
2023/03/08 06:40:57;;;;;;;3.40;1.07;;;-0.20;99.90;;;;;;4982274;28;20084;-72
2023/03/08 06:43:24;;;;;;;3.00;0.80;;;-0.10;99.90;;;;;;4974015;28;20089;-75
2023/03/08 06:45:49;;;;;;;1.23;1.13;;;-0.10;99.90;;;;;;4984506;28;20448;-72
2023/03/08 06:48:15;;;;;;;1.93;1.57;;;-0.10;99.90;;;;;;5001764;28;20041;-71
2023/03/08 06:50:40;;;;;;;1.90;0.90;;;-0.10;99.90;;;;;;5003052;28;20425;-71
2023/03/08 06:53:06;;;;;;;4.67;1.20;;;-0.10;99.90;;;;;;4998318;28;20066;-72
2023/03/08 06:55:35;;;;;;;15.47;2.33;;;0.00;99.90;;;;;;5003890;28;20497;-71
2023/03/08 06:58:01;;;;;;;1.17;1.03;;;0.00;99.90;;;;;;4981974;28;20126;-72
2023/03/08 07:00:26;;;;;;;0.50;0.40;;;0.00;99.90;;;;;;5002533;28;20124;-73
2023/03/08 07:02:52;;;;;;;1.80;0.83;;;0.00;99.90;;;;;;5005742;28;20042;-72
2023/03/08 07:05:18;;;;;;;1.13;0.90;;;0.00;99.90;;;;;;5004741;28;20050;-72
2023/03/08 07:07:44;;;;;;;2.53;0.77;;;0.00;99.90;;;;;;4976470;28;20054;-72
2023/03/08 07:10:13;;;;;;;0.83;0.80;;;0.00;99.90;;;;;;5003152;28;20571;-72
2023/03/08 07:12:42;;;;;;;7.13;1.20;;;0.00;99.90;;;;;;4999484;28;20391;-71
2023/03/08 07:15:09;;;;;;;2.03;0.67;;;0.10;99.90;;;;;;5001730;28;20486;-72
2023/03/08 07:17:35;;;;;;;2.53;1.30;;;0.10;99.90;;;;;;4993882;28;20041;-72
2023/03/08 07:20:04;;;;;;;6.10;1.10;;;0.10;99.90;;;;;;5005168;28;20041;-72
2023/03/08 07:22:30;;;;;;;3.63;1.23;;;0.10;99.90;;;;;;5002685;28;20042;-73
2023/03/08 07:24:56;;;;;;;1.50;0.77;;;0.10;99.90;;;;;;5005933;28;20053;-72
2023/03/08 07:27:21;;;;;;;1.10;0.80;;;0.20;99.90;;;;;;5005040;28;20042;-71
2023/03/08 07:29:47;;;;;;;2.53;1.03;;;0.20;99.90;;;;;;5003738;28;20049;-72
2023/03/08 07:32:12;;;;;;;3.50;1.63;;;0.20;99.90;;;;;;5005807;28;20410;-72
2023/03/08 07:34:38;;;;;;;1.37;1.00;;;0.30;99.90;;;;;;5006006;28;20057;-72
2023/03/08 07:37:04;;;;;;;1.70;1.07;;;0.30;99.90;;;;;;5006567;28;20046;-72
2023/03/08 07:39:29;;;;;;;2.33;1.00;;;0.30;99.90;;;;;;5008130;28;20037;-73
2023/03/08 07:41:55;;;;;;;6.93;3.63;;;0.40;99.90;;;;;;5004772;28;20557;-72
2023/03/08 07:44:20;;;;;;;2.83;1.03;;;0.40;99.90;;;;;;5003648;28;20127;-72
2023/03/08 07:46:46;;;;;;;8.50;2.43;;;0.40;99.90;;;;;;5004876;28;20042;-72
2023/03/08 07:49:11;;;;;;;2.07;1.13;;;0.50;99.90;;;;;;5004456;28;20581;-72
2023/03/08 07:51:37;;;;;;;4.87;2.07;;;0.50;99.90;;;;;;5004792;28;20044;-72
2023/03/08 07:54:03;;;;;;;2.07;1.40;;;0.50;99.90;;;;;;5006032;28;20059;-72
2023/03/08 07:56:28;;;;;;;2.50;1.87;;;0.60;99.90;;;;;;5004999;28;20046;-72
2023/03/08 07:58:57;;;;;;;2.37;2.17;;;0.60;99.90;;;;;;5004887;28;20970;-72
2023/03/08 08:01:23;;;;;;;1.60;1.40;;;0.70;99.90;;;;;;5004217;28;20046;-72
2023/03/08 08:03:49;;;;;;;8.27;2.90;;;0.70;99.90;;;;;;5004604;28;20111;-72
2023/03/08 08:06:14;;;;;;;3.63;2.00;;;0.70;99.90;;;;;;5005170;28;20092;-72
2023/03/08 08:08:40;;;;;;;10.67;2.43;;;0.80;99.90;;;;;;5004388;28;20074;-72
2023/03/08 08:11:14;;;;;;;2.77;2.20;;;0.80;99.90;;;;;;5005590;28;20053;-72
2023/03/08 08:13:40;;;;;;;6.20;2.47;;;0.80;99.90;;;;;;5004826;28;20046;-72
2023/03/08 08:16:08;;;;;;;4.67;2.07;;;0.90;99.90;;;;;;5005421;28;20042;-72
2023/03/08 08:18:35;;;;;;;2.70;2.00;;;0.90;99.90;;;;;;5004268;28;20561;-72
2023/03/08 08:21:06;;;;;;;5.57;2.57;;;1.00;99.90;;;;;;5005171;28;20581;-73
2023/03/08 08:23:32;;;;;;;2.13;1.88;;;1.00;99.90;;;;;;5003948;28;20289;-72
2023/03/08 08:25:58;;;;;;;5.80;1.57;;;1.00;99.90;;;;;;5005689;28;20041;-72
2023/03/08 08:28:25;;;;;;;7.73;3.33;;;1.00;99.90;;;;;;5004190;28;20063;-73
2023/03/08 08:31:03;;;;;;;1.17;0.90;;;1.10;99.90;;;;;;5005904;28;20443;-72
2023/03/08 08:33:29;;;;;;;6.47;1.33;;;1.10;99.90;;;;;;5005459;28;20045;-72
2023/03/08 08:35:55;;;;;;;1.17;0.80;;;1.10;99.90;;;;;;4987993;28;20038;-72
2023/03/08 08:38:21;;;;;;;1.47;0.93;;;1.20;99.90;;;;;;5003903;28;20067;-72
2023/03/08 08:40:47;;;;;;;1.80;1.30;;;1.20;99.90;;;;;;5003546;28;20053;-72
2023/03/08 08:43:13;;;;;;;2.83;1.13;;;1.20;99.90;;;;;;5003232;28;20048;-72
2023/03/08 08:45:47;;;;;;;1.57;1.40;;;1.20;99.90;;;;;;5002860;28;20034;-72
2023/03/08 08:48:14;;;;;;;2.37;1.60;;;1.30;99.90;;;;;;4983686;28;20084;-72
2023/03/08 08:50:40;;;;;;;4.00;2.03;;;1.30;99.90;;;;;;4984261;28;20050;-72
2023/03/08 08:53:07;;;;;;;2.40;1.30;;;1.30;99.90;;;;;;4985439;28;20034;-72
2023/03/08 08:55:33;;;;;;;0.67;0.67;;;1.40;99.90;;;;;;4985117;28;20143;-72
2023/03/08 08:58:00;;;;;;;3.77;2.20;;;1.40;99.90;;;;;;4985490;28;20038;-72
2023/03/08 09:00:26;;;;;;;3.20;1.43;;;1.50;99.90;;;;;;4967233;28;20039;-72
2023/03/08 09:02:51;;;;;;;1.30;1.00;;;1.50;99.90;;;;;;4967813;28;20116;-73
2023/03/08 09:05:17;;;;;;;2.83;2.27;;;1.50;99.90;;;;;;4984537;28;20038;-72
2023/03/08 09:07:42;;;;;;;3.17;1.90;;;1.60;99.90;;;;;;4983688;28;20053;-72
2023/03/08 09:10:09;;;;;;;3.93;1.67;;;1.60;99.90;;;;;;4983321;28;20042;-72
2023/03/08 09:12:34;;;;;;;17.27;3.20;;;1.60;99.90;;;;;;4967256;28;20104;-72
2023/03/08 09:15:00;;;;;;;5.37;2.23;;;1.70;99.90;;;;;;4982563;28;20038;-73
2023/03/08 09:17:26;;;;;;;3.40;2.17;;;1.70;99.90;;;;;;4983386;28;20138;-72
2023/03/08 09:19:51;;;;;;;2.47;1.77;;;1.70;99.90;;;;;;4967217;28;20467;-71
2023/03/08 09:22:17;;;;;;;3.33;1.60;;;1.80;99.90;;;;;;4983141;28;20048;-72
2023/03/08 09:24:44;;;;;;;1.53;1.43;;;1.80;99.90;;;;;;4983523;28;20406;-72
2023/03/08 09:27:10;;;;;;;5.67;3.27;;;1.80;99.90;;;;;;4984204;28;20046;-71
2023/03/08 09:29:36;;;;;;;3.20;2.90;;;1.90;99.90;;;;;;4982304;28;20446;-72
2023/03/08 09:32:03;;;;;;;5.47;4.53;;;1.90;99.90;;;;;;4984469;28;20124;-72
2023/03/08 09:34:29;;;;;;;27.57;3.40;;;2.00;99.90;;;;;;4985373;28;20049;-71
2023/03/08 09:36:55;;;;;;;4.17;3.37;;;2.00;99.90;;;;;;4984873;28;20038;-71
2023/03/08 09:39:20;;;;;;;4.03;2.37;;;2.00;99.90;;;;;;4983197;28;20125;-72
2023/03/08 09:41:57;;;;;;;5.53;2.87;;;2.10;99.90;;;;;;4984720;28;20049;-72
2023/03/08 09:44:42;;;;;;;4.37;2.57;;;2.10;99.90;;;;;;4982044;28;20120;-72
2023/03/08 09:47:12;;;;;;;2.63;2.00;;;2.20;99.90;;;;;;4993470;28;20334;-72
2023/03/08 09:49:41;;;;;;;14.00;3.13;;;2.20;99.90;;;;;;5002880;28;20057;-72
2023/03/08 09:52:28;;;;;;;3.40;2.23;;;2.30;99.90;;;;;;5002213;28;20042;-72
2023/03/08 09:54:55;;;;;;;5.73;3.67;;;2.30;99.90;;;;;;5004011;28;20136;-72
2023/03/08 09:57:25;;;;;;;9.87;3.10;;;2.40;99.90;;;;;;5001999;28;20107;-72
2023/03/08 09:59:56;;;;;;;9.67;3.00;;;2.40;99.90;;;;;;5001529;28;20144;-72
2023/03/08 10:02:44;;;;;;;7.40;5.07;;;2.50;99.90;;;;;;5003448;28;20050;-72
2023/03/08 10:05:36;;;;;;;4.07;2.93;;;2.50;99.90;;;;;;5003854;28;20528;-72
2023/03/08 10:08:21;;;;;;;8.40;3.00;;;2.60;99.90;;;;;;5001130;28;20414;-72
2023/03/08 10:10:49;;;;;;;9.37;2.30;;;2.60;99.90;;;;;;5002446;28;20092;-72
2023/03/08 10:13:28;;;;;;;3.67;2.50;;;2.70;99.90;;;;;;5001009;28;20085;-72
2023/03/08 10:16:19;;;;;;;2.80;2.60;;;2.70;99.90;;;;;;4986041;28;20045;-72
2023/03/08 10:19:04;;;;;;;13.43;2.43;;;2.70;99.90;;;;;;5003304;28;20061;-72
2023/03/08 10:21:31;;;;;;;5.03;2.53;;;2.70;99.90;;;;;;5004061;28;20123;-74
2023/03/08 10:24:06;;;;;;;1.67;1.57;;;2.70;99.90;;;;;;5002375;28;20050;-73
2023/03/08 10:26:32;;;;;;;3.20;2.17;;;2.80;99.90;;;;;;4986312;28;20457;-72
2023/03/08 10:28:58;;;;;;;2.90;2.67;;;2.80;99.90;;;;;;5001353;28;20033;-73
2023/03/08 10:31:29;;;;;;;2.40;1.80;;;2.90;99.90;;;;;;4989083;28;20401;-73
2023/03/08 10:34:11;;;;;;;2.20;1.77;;;2.90;99.90;;;;;;5007756;28;20041;-73
2023/03/08 10:36:57;;;;;;;5.70;2.80;;;2.90;99.90;;;;;;5006004;28;20085;-73
2023/03/08 10:39:23;;;;;;;2.67;1.63;;;3.00;99.90;;;;;;5005390;28;20042;-73
2023/03/08 10:41:53;;;;;;;4.27;1.90;;;3.00;99.90;;;;;;5007605;28;20088;-72
2023/03/08 10:44:41;;;;;;;4.87;1.87;;;3.00;99.90;;;;;;5005761;28;20050;-72
2023/03/08 10:47:24;;;;;;;10.27;2.50;;;3.10;99.90;;;;;;5005308;28;20144;-73
2023/03/08 10:50:08;;;;;;;;;;;3.10;99.90;;;;;;5007798;28;20528;-73
2023/03/08 10:52:34;;;;;;;4.77;2.10;;;3.20;99.90;;;;;;5038667;28;20370;-72
2023/03/08 10:55:09;;;;;;;1.77;1.43;;;3.20;99.90;;;;;;5006011;28;20057;-74
2023/03/08 10:57:36;;;;;;;6.43;2.13;;;3.20;99.90;;;;;;5007244;28;20042;-73
2023/03/08 11:00:24;;;;;;;1.50;1.17;;;3.30;99.90;;;;;;5003339;28;20037;-73
2023/03/08 11:03:02;;;;;;;1.53;1.00;;;3.30;99.90;;;;;;5000908;28;20285;-73
2023/03/08 11:05:27;;;;;;;5.13;2.33;;;3.40;99.90;;;;;;4998562;28;20129;-73
2023/03/08 11:07:55;;;;;;;2.23;1.83;;;3.40;99.90;;;;;;4992090;28;20146;-82
2023/03/08 11:10:24;;;;;;;2.08;1.92;;;3.40;99.90;;;;;;5003312;28;20192;-75
2023/03/08 11:13:27;;;;;;;2.65;1.33;;;3.40;99.90;;;;;;4997337;28;20165;-75
2023/03/08 11:16:05;;;;;;;1.70;1.30;;;3.50;99.90;;;;;;4992168;28;20049;-76
2023/03/08 11:18:39;;;;;;;2.92;1.77;;;3.50;99.90;;;;;;5000399;28;20066;-76
2023/03/08 11:21:14;;;;;;;2.08;1.88;;;3.60;99.90;;;;;;4987633;28;20046;-76
2023/03/08 11:24:02;;;;;;;2.50;1.50;;;3.60;99.90;;;;;;4996860;28;20104;-76
2023/03/08 11:26:43;;;;;;;1.43;1.33;;;3.70;99.90;;;;;;4995967;28;20056;-76
2023/03/08 11:29:32;;;;;;;2.85;1.88;;;3.70;99.90;;;;;;5012826;28;20049;-75
2023/03/08 11:32:28;;;;;;;1.67;1.58;;;3.80;99.90;;;;;;4991248;28;20081;-74
2023/03/08 11:35:47;;;;;;;3.08;1.60;;;3.80;99.90;;;;;;4971470;28;20108;-75
2023/03/08 11:38:27;;;;;;;4.30;2.97;;;3.80;99.90;;;;;;4932673;28;20051;-75
2023/03/08 11:41:02;;;;;;;20.25;1.75;;;3.90;99.90;;;;;;5006184;28;20049;-74
2023/03/08 11:43:30;;;;;;;2.30;1.10;;;3.90;99.90;;;;;;5000396;28;20176;-75
2023/03/08 11:46:00;;;;;;;1.20;0.75;;;3.90;99.90;;;;;;5001787;28;20046;-75
2023/03/08 11:48:37;;;;;;;1.83;0.70;;;4.00;99.90;;;;;;4994781;28;20510;-74
2023/03/08 11:51:15;;;;;;;2.13;1.35;;;4.00;99.90;;;;;;4985752;28;20136;-76
2023/03/08 11:54:10;;;;;;;9.98;0.90;;;4.00;99.90;;;;;;5000047;28;20049;-75
2023/03/08 11:56:55;;;;;;;8.00;1.23;;;4.10;99.90;;;;;;5006258;28;20046;-74
2023/03/08 11:59:53;;;;;;;2.17;1.00;;;4.10;99.90;;;;;;4995084;28;20050;-75
2023/03/08 12:02:33;;;;;;;0.80;0.73;;;4.10;99.90;;;;;;4986822;28;20050;-75
2023/03/08 12:05:07;;;;;;;1.48;0.93;;;4.20;99.90;;;;;;4995363;28;20127;-75
2023/03/08 12:07:46;;;;;;;2.25;1.45;;;4.20;99.90;;;;;;4985319;28;20057;-74
2023/03/08 12:10:20;;;;;;;2.42;1.02;;;4.30;99.90;;;;;;5013450;28;20293;-75
2023/03/08 12:12:57;;;;;;;1.25;0.95;;;4.30;99.90;;;;;;5002740;28;20506;-77
2023/03/08 12:15:52;;;;;;;0.65;0.65;;;4.30;99.90;;;;;;4997930;28;20048;-74
2023/03/08 12:18:27;;;;;;;4.80;1.00;;;4.30;99.90;;;;;;5004980;28;20061;-75
2023/03/08 12:21:12;;;;;;;1.52;1.08;;;4.40;99.90;;;;;;5005478;28;20052;-75
2023/03/08 12:23:43;;;;;;;2.08;0.93;;;4.40;99.90;;;;;;4998199;28;20270;-76
2023/03/08 12:26:28;;;;;;;1.27;1.00;;;4.50;99.90;;;;;;5003570;28;20103;-73
2023/03/08 12:29:02;;;;;;;2.15;1.05;;;4.50;99.90;;;;;;4987659;28;20502;-75
2023/03/08 12:31:32;;;;;;;1.60;1.02;;;4.50;99.90;;;;;;5006427;28;20045;-76
2023/03/08 12:33:59;;;;;;;2.55;2.05;;;4.60;99.90;;;;;;5001159;28;20088;-73
2023/03/08 12:36:42;;;;;;;2.67;0.85;;;4.60;99.90;;;;;;4996689;28;20038;-74
2023/03/08 12:39:26;;;;;;;2.92;1.00;;;4.60;99.90;;;;;;5002673;28;20049;-73
2023/03/08 12:41:57;;;;;;;0.95;0.80;;;4.60;99.90;;;;;;4991832;28;20466;-73
2023/03/08 12:44:25;;;;;;;8.85;1.10;;;4.70;99.90;;;;;;4999896;28;20077;-78
2023/03/08 12:47:01;;;;;;;0.80;0.80;;;4.70;99.90;;;;;;5002712;28;20034;-74
2023/03/08 12:49:29;;;;;;;0.65;0.60;;;4.70;99.90;;;;;;5005893;28;20128;-76
2023/03/08 12:52:20;;;;;;;1.75;0.85;;;4.80;99.90;;;;;;4997293;28;20096;-76
2023/03/08 12:55:07;;;;;;;3.13;1.50;;;4.80;99.90;;;;;;5003735;28;20589;-76
2023/03/08 12:57:41;;;;;;;1.27;1.00;;;4.80;99.90;;;;;;5004014;28;20037;-77
2023/03/08 13:00:24;;;;;;;1.20;0.70;;;4.80;99.90;;;;;;4999043;28;20129;-74
2023/03/08 13:03:12;;;;;;;3.15;0.82;;;4.80;99.90;;;;;;4999346;28;20056;-76
2023/03/08 13:05:40;;;;;;;1.83;0.95;;;4.90;99.90;;;;;;4999043;28;20043;-74
2023/03/08 13:08:11;;;;;;;1.80;0.95;;;4.80;99.90;;;;;;4990792;28;20053;-75
2023/03/08 13:10:40;;;;;;;1.95;1.00;;;4.90;99.90;;;;;;5004608;28;20060;-75